Time;durP1;ratioP1;P1;durP2;ratioP2;P2;SDS_P1;SDS_P2;PMS_P1;PMS_P2;Temp;Humidity;BMP_temperature;BMP_pressure;BME280_temperature;BME280_humidity;BME280_pressure;Samples;Min_cycle;Max_cycle;Signal;HPM_P1;HPM_P2
2022/08/22 00:01:37;;;;;;;10.20;7.13;;;;;;;21.10;96.66;94211.84;4917609;29;20467;-82
2022/08/22 00:04:12;;;;;;;8.53;6.57;;;;;;;21.11;96.87;94208.16;4917259;29;20455;-81
2022/08/22 00:06:52;;;;;;;7.73;6.40;;;;;;;21.17;97.47;94204.66;4899492;29;20830;-82
2022/08/22 00:09:32;;;;;;;7.30;6.60;;;;;;;21.15;97.75;94217.38;4917031;29;20478;-82
2022/08/22 00:12:14;;;;;;;13.87;8.43;;;;;;;21.17;97.04;94216.13;4917302;29;20858;-81
2022/08/22 00:14:46;;;;;;;7.93;7.13;;;;;;;21.19;96.97;94213.25;4900808;29;20487;-82
2022/08/22 00:17:28;;;;;;;12.60;8.50;;;;;;;21.22;96.80;94207.50;4884899;29;20961;-82
2022/08/22 00:20:06;;;;;;;7.40;6.70;;;;;;;21.23;96.80;94206.47;4917100;29;20460;-82
2022/08/22 00:22:39;;;;;;;9.30;7.00;;;;;;;21.26;97.08;94211.41;4916726;29;20454;-83
2022/08/22 00:25:21;;;;;;;11.00;7.80;;;;;;;21.26;97.21;94214.88;4917141;29;20480;-83
2022/08/22 00:27:54;;;;;;;10.67;8.57;;;;;;;21.21;97.45;94211.19;4917089;29;20456;-83
2022/08/22 00:30:21;;;;;;;9.00;7.57;;;;;;;21.21;97.47;94208.53;4854558;29;20448;-82
2022/08/22 00:32:53;;;;;;;8.87;7.97;;;;;;;21.22;97.40;94202.16;4920754;29;20842;-82
2022/08/22 00:35:24;;;;;;;8.37;7.47;;;;;;;21.21;97.86;94197.84;4921075;29;20447;-82
2022/08/22 00:38:04;;;;;;;7.70;6.90;;;;;;;21.25;97.61;94196.41;4920913;29;20455;-82
2022/08/22 00:40:52;;;;;;;13.37;7.57;;;;;;;21.27;97.69;94194.34;4920544;29;20459;-82
2022/08/22 00:44:01;;;;;;;8.57;7.77;;;;;;;21.27;97.73;94202.38;4920781;29;20451;-83
2022/08/22 00:46:59;;;;;;;7.47;6.77;;;;;;;21.27;97.33;94194.34;4843820;29;20462;-82
2022/08/22 00:49:59;;;;;;;8.33;7.13;;;;;;;21.24;97.12;94189.44;4807256;29;20464;-82
2022/08/22 00:53:08;;;;;;;17.30;7.90;;;;;;;21.12;97.82;94191.94;4735944;30;20520;-83
2022/08/22 00:55:50;;;;;;;10.20;7.67;;;;;;;21.10;97.77;94190.50;4735061;30;20497;-82
2022/08/22 00:58:44;;;;;;;13.47;7.40;;;;;;;21.01;98.13;94190.72;4736210;30;20596;-82
2022/08/22 01:01:16;;;;;;;16.47;7.73;;;;;;;20.99;98.27;94187.47;4735686;30;20461;-82
2022/08/22 01:04:27;;;;;;;12.50;6.80;;;;;;;20.99;98.74;94187.47;4735867;30;20523;-82
2022/08/22 01:07:11;;;;;;;11.20;7.23;;;;;;;20.99;98.63;94191.97;4735291;30;20551;-82
2022/08/22 01:09:50;;;;;;;9.83;7.80;;;;;;;21.00;98.67;94188.28;4735666;30;20829;-82
2022/08/22 01:12:43;;;;;;;27.70;8.20;;;;;;;21.00;97.93;94193.63;4735453;30;20500;-82
2022/08/22 01:15:13;;;;;;;13.00;6.97;;;;;;;20.94;97.94;94192.63;4735762;30;20875;-82
2022/08/22 01:18:01;;;;;;;10.93;7.87;;;;;;;20.96;98.03;94193.22;4735430;30;20529;-81
2022/08/22 01:20:58;;;;;;;15.70;9.07;;;;;;;20.93;97.67;94200.81;4771592;29;20522;-82
2022/08/22 01:24:04;;;;;;;11.20;7.63;;;;;;;20.89;98.17;94199.63;4807025;29;20465;-82
2022/08/22 01:27:14;;;;;;;13.67;8.17;;;;;;;20.89;98.18;94192.44;4784725;29;20456;-82
2022/08/22 01:30:12;;;;;;;9.60;8.70;;;;;;;20.89;97.98;94195.09;4829346;29;20451;-82
2022/08/22 01:33:11;;;;;;;16.00;8.77;;;;;;;20.89;97.92;94191.63;4842643;29;20503;-82
2022/08/22 01:36:19;;;;;;;11.13;8.43;;;;;;;20.89;97.90;94191.63;4843056;29;20486;-82
2022/08/22 01:39:25;;;;;;;9.67;7.30;;;;;;;20.83;97.84;94200.47;4735010;30;20461;-83
2022/08/22 01:42:29;;;;;;;12.23;7.37;;;;;;;20.82;97.77;94207.63;4681897;30;20899;-83
2022/08/22 01:45:18;;;;;;;16.50;8.37;;;;;;;20.78;97.77;94201.06;4683243;30;20471;-82
2022/08/22 01:47:51;;;;;;;8.17;7.37;;;;;;;20.78;97.77;94203.72;4683002;30;20482;-82
2022/08/22 01:50:23;;;;;;;11.73;7.63;;;;;;;20.79;97.81;94207.22;4683026;30;20470;-82
2022/08/22 01:52:58;;;;;;;10.07;7.73;;;;;;;20.77;97.43;94199.44;4655153;30;20503;-81
2022/08/22 01:55:33;;;;;;;8.10;7.00;;;;;;;20.75;97.67;94195.34;4683003;30;20491;-83
2022/08/22 01:58:04;;;;;;;7.97;6.87;;;;;;;20.75;97.98;94200.66;4655035;30;20467;-82
2022/08/22 02:00:51;;;;;;;9.17;8.03;;;;;;;20.75;98.09;94201.47;4682907;30;20459;-82
2022/08/22 02:03:25;;;;;;;12.07;6.50;;;;;;;20.71;97.76;94194.94;4723916;30;20462;-82
2022/08/22 02:06:00;;;;;;;11.87;7.67;;;;;;;20.67;97.60;94194.53;4770232;30;20494;-82
2022/08/22 02:08:37;;;;;;;8.70;7.57;;;;;;;20.65;98.25;94195.78;4770118;30;20885;-82
2022/08/22 02:11:06;;;;;;;9.20;6.90;;;;;;;20.67;97.63;94193.72;4770115;30;20951;-82
2022/08/22 02:13:49;;;;;;;11.67;8.27;;;;;;;20.69;98.25;94194.31;4770210;30;20482;-80
2022/08/22 02:16:23;;;;;;;12.40;7.50;;;;;;;20.67;98.11;94196.38;4812812;29;20461;-82
2022/08/22 02:19:21;;;;;;;10.63;7.80;;;;;;;20.63;97.88;94203.97;4845291;29;20843;-82
2022/08/22 02:21:54;;;;;;;11.73;7.07;;;;;;;20.63;97.66;94203.97;4842300;29;20495;-82
2022/08/22 02:24:41;;;;;;;13.17;7.87;;;;;;;20.62;97.68;94199.69;4841997;29;20461;-82
2022/08/22 02:27:17;;;;;;;14.57;6.63;;;;;;;20.59;97.53;94201.94;4842085;29;20463;-82
2022/08/22 02:29:50;;;;;;;8.23;6.60;;;;;;;20.56;97.48;94200.53;4842200;29;20487;-83
2022/08/22 02:32:24;;;;;;;10.20;7.30;;;;;;;20.54;97.72;94207.09;4845509;29;20533;-81
2022/08/22 02:35:02;;;;;;;9.70;6.73;;;;;;;20.56;97.80;94205.03;4852977;29;20471;-79
2022/08/22 02:37:40;;;;;;;13.83;7.90;;;;;;;20.60;97.49;94200.91;4847032;29;20475;-83
2022/08/22 02:40:16;;;;;;;11.70;8.17;;;;;;;20.54;97.69;94197.25;4811620;29;20460;-83
2022/08/22 02:42:51;;;;;;;14.43;7.10;;;;;;;20.49;97.17;94205.00;4848447;29;20459;-83
2022/08/22 02:45:28;;;;;;;9.70;7.20;;;;;;;20.48;97.34;94198.06;4841759;29;20935;-82
2022/08/22 02:48:04;;;;;;;12.00;8.43;;;;;;;20.48;97.44;94203.38;4841760;29;21010;-81
2022/08/22 02:50:39;;;;;;;8.40;6.83;;;;;;;20.42;97.16;94202.38;4841635;29;21026;-82
2022/08/22 02:53:23;;;;;;;10.93;7.70;;;;;;;20.41;97.66;94191.91;4841240;29;21020;-82
2022/08/22 02:55:56;;;;;;;17.20;8.07;;;;;;;20.39;97.83;94193.94;4841395;29;20475;-82
2022/08/22 02:58:36;;;;;;;13.57;6.83;;;;;;;20.40;97.72;94199.09;4866331;29;20455;-82
2022/08/22 03:01:33;;;;;;;11.80;8.10;;;;;;;20.42;97.76;94205.03;4918312;29;20950;-83
2022/08/22 03:04:27;;;;;;;12.60;8.77;;;;;;;20.42;97.19;94205.03;4918500;29;20480;-83
2022/08/22 03:07:07;;;;;;;13.00;7.53;;;;;;;20.44;97.44;94210.16;4841233;29;20462;-82
2022/08/22 03:09:39;;;;;;;10.00;6.87;;;;;;;20.41;97.25;94208.72;4841534;29;20468;-83
2022/08/22 03:12:15;;;;;;;8.53;7.40;;;;;;;20.44;97.34;94212.00;4830114;29;20527;-82
2022/08/22 03:14:47;;;;;;;12.53;7.03;;;;;;;20.40;97.38;94212.41;4841437;29;20847;-82
2022/08/22 03:17:26;;;;;;;17.03;9.33;;;;;;;20.40;97.41;94204.44;4841608;29;20455;-83
2022/08/22 03:19:59;;;;;;;10.77;7.67;;;;;;;20.38;97.29;94208.28;4841017;29;20516;-82
2022/08/22 03:22:38;;;;;;;15.70;8.37;;;;;;;20.35;97.63;94222.03;4841046;29;20491;-82
2022/08/22 03:25:14;;;;;;;15.83;7.93;;;;;;;20.34;97.47;94226.53;4841364;29;20451;-82
2022/08/22 03:27:45;;;;;;;11.40;7.43;;;;;;;20.28;97.48;94224.72;4841256;29;20462;-82
2022/08/22 03:30:17;;;;;;;11.63;8.33;;;;;;;20.29;97.31;94218.34;4841147;29;20462;-82
2022/08/22 03:32:51;;;;;;;8.13;7.20;;;;;;;20.28;97.47;94230.03;4840737;29;20499;-82
2022/08/22 03:35:34;;;;;;;9.07;8.17;;;;;;;20.24;97.25;94222.63;4825974;29;20460;-82
2022/08/22 03:38:23;;;;;;;16.50;9.20;;;;;;;20.25;97.16;94216.31;4840951;29;20480;-81
2022/08/22 03:41:05;;;;;;;14.00;8.10;;;;;;;20.21;96.99;94218.53;4840905;29;20948;-82
2022/08/22 03:44:07;;;;;;;16.50;7.50;;;;;;;20.17;96.99;94222.66;4864819;29;20463;-82
2022/08/22 03:47:09;;;;;;;9.00;7.27;;;;;;;20.13;96.60;94224.09;4917685;29;20462;-82
2022/08/22 03:50:10;;;;;;;13.47;7.90;;;;;;;20.08;96.61;94222.03;4917488;29;20819;-82
2022/08/22 03:53:09;;;;;;;13.33;7.80;;;;;;;20.04;96.75;94222.66;4917481;29;20495;-82
2022/08/22 03:56:04;;;;;;;14.67;7.83;;;;;;;20.03;96.96;94223.69;4917733;29;20970;-82
2022/08/22 03:59:01;;;;;;;17.20;8.23;;;;;;;20.02;96.89;94219.38;4917670;29;20453;-81
2022/08/22 04:01:53;;;;;;;8.70;7.67;;;;;;;20.04;97.01;94209.34;4884311;29;20456;-83
2022/08/22 04:04:55;;;;;;;12.20;7.40;;;;;;;20.06;97.24;94217.94;4917297;29;20516;-80
2022/08/22 04:07:54;;;;;;;11.47;7.70;;;;;;;20.03;96.96;94210.34;4840751;29;21010;-80
2022/08/22 04:10:51;;;;;;;24.10;7.60;;;;;;;20.04;96.36;94217.31;4840276;29;20455;-80
2022/08/22 04:13:46;;;;;;;12.60;6.90;;;;;;;20.04;96.10;94220.00;4840690;29;20487;-80
2022/08/22 04:16:55;;;;;;;10.30;7.27;;;;;;;20.04;95.55;94215.47;4825341;29;20452;-83
2022/08/22 04:19:41;;;;;;;9.53;6.90;;;;;;;20.07;95.61;94216.91;4840386;29;20466;-82
2022/08/22 04:22:33;;;;;;;11.87;7.53;;;;;;;20.08;95.10;94222.03;4839363;29;20510;-80
2022/08/22 04:25:06;;;;;;;10.27;8.10;;;;;;;20.07;95.53;94224.91;4839155;29;20460;-83
2022/08/22 04:27:40;;;;;;;10.73;8.70;;;;;;;20.10;95.40;94211.16;4840296;29;20458;-83
2022/08/22 04:30:14;;;;;;;11.77;7.57;;;;;;;20.10;95.03;94219.16;4840650;29;20474;-82
2022/08/22 04:32:45;;;;;;;9.53;6.90;;;;;;;20.13;94.65;94221.41;4837993;29;20825;-84
2022/08/22 04:35:19;;;;;;;13.97;7.90;;;;;;;20.13;94.36;94220.59;4840165;29;20452;-83
2022/08/22 04:37:53;;;;;;;10.30;6.73;;;;;;;20.12;94.91;94227.78;4840107;29;20846;-82
2022/08/22 04:40:27;;;;;;;11.30;8.47;;;;;;;20.13;94.31;94224.09;4840260;29;20451;-83
2022/08/22 04:42:58;;;;;;;10.20;7.70;;;;;;;20.15;94.14;94227.34;4839943;29;20464;-84
2022/08/22 04:45:31;;;;;;;9.23;8.30;;;;;;;20.18;93.91;94224.28;4899696;29;20808;-85
2022/08/22 04:48:06;;;;;;;15.13;7.03;;;;;;;20.16;93.59;94233.50;4916853;29;20468;-82
2022/08/22 04:50:39;;;;;;;18.37;8.17;;;;;;;20.18;93.33;94229.59;4917300;29;20874;-83
2022/08/22 04:53:22;;;;;;;9.07;7.87;;;;;;;20.23;93.76;94235.13;4912711;29;20532;-82
2022/08/22 04:56:00;;;;;;;35.33;8.60;;;;;;;20.26;93.93;94234.75;4917207;29;20515;-82
2022/08/22 04:58:44;;;;;;;10.60;6.60;;;;;;;20.31;93.47;94237.63;4912837;29;20561;-81
2022/08/22 05:01:16;;;;;;;16.40;7.57;;;;;;;20.33;92.59;94240.91;4906784;29;20451;-84
2022/08/22 05:03:49;;;;;;;11.20;7.73;;;;;;;20.37;93.13;94246.63;4912678;29;20457;-83
2022/08/22 05:06:19;;;;;;;11.00;7.53;;;;;;;20.44;92.82;94252.81;4928749;29;20448;-85
2022/08/22 05:08:49;;;;;;;11.83;7.07;;;;;;;20.48;92.99;94253.19;4916776;29;20456;-85
2022/08/22 05:11:20;;;;;;;9.33;7.50;;;;;;;20.55;92.90;94248.72;4916560;29;20487;-82
2022/08/22 05:13:52;;;;;;;14.87;8.30;;;;;;;20.61;92.91;94253.22;4925775;29;20969;-84
2022/08/22 05:16:23;;;;;;;20.63;8.30;;;;;;;20.66;93.08;94253.41;4920291;29;20455;-84
2022/08/22 05:18:53;;;;;;;20.27;10.97;;;;;;;20.70;93.69;94246.63;4920037;29;20920;-85
2022/08/22 05:21:24;;;;;;;10.00;8.77;;;;;;;20.74;94.24;94253.19;4918599;29;20459;-83
2022/08/22 05:23:55;;;;;;;10.67;8.90;;;;;;;20.81;95.62;94259.31;4918616;29;20444;-85
2022/08/22 05:26:25;;;;;;;11.63;9.77;;;;;;;20.91;97.07;94254.38;4919903;29;20483;-85
2022/08/22 05:28:58;;;;;;;13.80;9.77;;;;;;;20.96;95.03;94259.91;4920137;29;20499;-85
2022/08/22 05:31:28;;;;;;;10.63;8.93;;;;;;;21.01;93.93;94257.44;4913378;29;20842;-83
2022/08/22 05:34:01;;;;;;;12.90;9.93;;;;;;;21.08;94.36;94260.06;4909746;29;20868;-84
2022/08/22 05:36:33;;;;;;;10.90;9.77;;;;;;;21.12;93.45;94261.31;4919814;29;20959;-84
2022/08/22 05:39:04;;;;;;;14.10;9.70;;;;;;;21.17;93.56;94264.16;4919512;29;20495;-84
2022/08/22 05:41:37;;;;;;;14.27;10.30;;;;;;;21.23;93.79;94262.50;4919381;29;20515;-84
2022/08/22 05:44:05;;;;;;;11.83;9.83;;;;;;;21.27;93.38;94263.75;4919219;29;20475;-85
2022/08/22 05:46:39;;;;;;;13.87;9.93;;;;;;;21.26;92.79;94270.13;4918916;29;20456;-84
2022/08/22 05:49:16;;;;;;;12.80;10.00;;;;;;;21.28;93.47;94274.22;4919089;29;20466;-84
2022/08/22 05:51:50;;;;;;;18.30;10.80;;;;;;;21.31;93.24;94278.31;4918939;29;20458;-84
2022/08/22 05:54:21;;;;;;;15.63;12.20;;;;;;;21.33;93.31;94281.56;4918405;29;20496;-84
2022/08/22 05:56:56;;;;;;;14.97;11.27;;;;;;;21.38;92.95;94292.44;4918779;29;20816;-84
2022/08/22 05:59:26;;;;;;;13.80;9.80;;;;;;;21.45;92.38;94282.56;4918796;29;20455;-84
2022/08/22 06:02:03;;;;;;;18.20;10.50;;;;;;;21.50;93.44;94284.59;4902956;29;20800;-84
2022/08/22 06:04:35;;;;;;;11.27;10.13;;;;;;;21.55;94.27;94287.44;4919898;29;20459;-83
2022/08/22 06:07:07;;;;;;;13.87;11.63;;;;;;;21.53;93.48;94290.34;4922181;29;20492;-84
2022/08/22 06:09:54;;;;;;;18.10;10.60;;;;;;;21.54;92.39;94293.81;4921662;29;20445;-84
2022/08/22 06:12:31;;;;;;;15.87;11.23;;;;;;;21.57;92.82;94288.88;4920612;29;20836;-84
2022/08/22 06:15:06;;;;;;;14.47;11.27;;;;;;;21.61;93.43;94292.75;4919171;29;20463;-85
2022/08/22 06:17:37;;;;;;;15.70;11.50;;;;;;;21.68;92.86;94297.25;4900599;29;20454;-84
2022/08/22 06:20:07;;;;;;;15.47;10.27;;;;;;;21.74;93.69;94299.09;4918585;29;20447;-84
2022/08/22 06:22:38;;;;;;;21.97;13.50;;;;;;;21.80;93.66;94291.03;4918587;29;20456;-85
2022/08/22 06:25:09;;;;;;;16.23;11.73;;;;;;;21.95;94.66;94298.75;4921903;29;20456;-84
2022/08/22 06:27:37;;;;;;;19.13;13.57;;;;;;;22.01;91.12;94297.91;4930920;29;20483;-83
2022/08/22 06:30:06;;;;;;;20.63;13.00;;;;;;;22.09;91.58;94304.88;4924071;29;20476;-84
2022/08/22 06:32:38;;;;;;;18.53;10.60;;;;;;;22.22;91.58;94304.78;4918248;29;20447;-85
2022/08/22 06:35:12;;;;;;;19.57;13.20;;;;;;;22.36;89.86;94306.34;4931610;29;20504;-85
2022/08/22 06:37:44;;;;;;;17.57;12.23;;;;;;;22.52;90.17;94304.97;4931822;29;20459;-85
2022/08/22 06:40:15;;;;;;;21.50;13.40;;;;;;;22.63;89.18;94317.66;4918223;29;20498;-84
2022/08/22 06:42:48;;;;;;;16.10;11.40;;;;;;;22.74;89.36;94308.91;4900628;29;20499;-84
2022/08/22 06:45:19;;;;;;;17.07;12.30;;;;;;;22.91;86.99;94308.41;4919764;29;20458;-83
2022/08/22 06:47:51;;;;;;;19.83;11.73;;;;;;;23.15;85.63;94313.72;4917793;29;20448;-82
2022/08/22 06:50:23;;;;;;;14.50;11.30;;;;;;;23.58;84.91;94309.38;4917810;29;20464;-83
2022/08/22 06:52:53;;;;;;;17.60;12.07;;;;;;;23.74;81.94;94312.28;4917515;29;20856;-83
2022/08/22 06:55:22;;;;;;;17.60;12.20;;;;;;;23.81;81.38;94314.88;4917440;29;20599;-83
2022/08/22 06:57:55;;;;;;;14.23;11.30;;;;;;;24.07;82.10;94306.47;4917525;29;20547;-82
2022/08/22 07:00:22;;;;;;;14.33;12.70;;;;;;;24.42;80.33;94311.16;4917728;29;20448;-83
2022/08/22 07:02:57;;;;;;;15.63;11.70;;;;;;;24.54;78.67;94309.31;4917597;29;20448;-83
2022/08/22 07:05:27;;;;;;;16.03;10.13;;;;;;;24.45;77.25;94304.50;4917390;29;20451;-82
2022/08/22 07:07:54;;;;;;;13.07;11.00;;;;;;;24.56;76.96;94301.84;4917160;29;20484;-83
2022/08/22 07:10:24;;;;;;;11.90;10.23;;;;;;;24.67;76.34;94319.84;4917356;29;20444;-82
2022/08/22 07:12:56;;;;;;;13.03;11.10;;;;;;;24.69;76.33;94311.56;4916869;29;20503;-83
2022/08/22 07:15:33;;;;;;;12.00;10.10;;;;;;;24.53;75.16;94320.28;4917181;29;20456;-83
2022/08/22 07:18:03;;;;;;;13.50;10.53;;;;;;;24.51;77.20;94320.50;4899602;29;20458;-83
2022/08/22 07:20:34;;;;;;;12.83;10.87;;;;;;;24.58;75.88;94315.06;4917160;29;20827;-82
2022/08/22 07:23:05;;;;;;;15.53;10.70;;;;;;;24.48;75.96;94317.47;4916886;29;20459;-83
2022/08/22 07:25:43;;;;;;;13.47;11.73;;;;;;;24.60;76.52;94318.31;4916909;29;20444;-83
2022/08/22 07:28:26;;;;;;;14.13;11.30;;;;;;;24.66;76.06;94326.25;4916867;29;20458;-83
2022/08/22 07:30:56;;;;;;;15.67;12.27;;;;;;;24.76;75.83;94317.63;4915848;29;20466;-83
2022/08/22 07:33:39;;;;;;;12.40;11.13;;;;;;;24.89;74.94;94325.50;4917028;29;20547;-83
2022/08/22 07:36:19;;;;;;;14.70;11.20;;;;;;;25.14;74.46;94316.41;4916741;29;20894;-83
2022/08/22 07:38:49;;;;;;;12.70;11.40;;;;;;;25.35;73.53;94317.69;4916642;29;20458;-83
2022/08/22 07:41:24;;;;;;;13.80;12.37;;;;;;;25.37;73.45;94321.75;4915674;29;20801;-82
2022/08/22 07:43:57;;;;;;;14.30;12.60;;;;;;;25.07;73.21;94321.06;4914895;29;20463;-82
2022/08/22 07:46:31;;;;;;;15.63;10.50;;;;;;;24.96;73.90;94317.31;4916782;29;20447;-83
2022/08/22 07:49:18;;;;;;;11.90;10.70;;;;;;;24.84;73.81;94321.84;4917857;29;20463;-83
2022/08/22 07:51:48;;;;;;;13.57;10.73;;;;;;;24.56;74.78;94317.13;4917368;29;20654;-83
2022/08/22 07:54:22;;;;;;;15.07;10.73;;;;;;;24.71;75.53;94315.66;4916577;29;20534;-82
2022/08/22 07:56:57;;;;;;;11.83;10.57;;;;;;;24.83;75.71;94318.34;4916947;29;20452;-83
2022/08/22 07:59:27;;;;;;;15.00;10.93;;;;;;;24.90;74.71;94318.25;4916469;29;20454;-83
2022/08/22 08:01:58;;;;;;;14.67;10.60;;;;;;;24.84;74.81;94324.53;4914283;29;20464;-82
2022/08/22 08:04:29;;;;;;;14.77;12.07;;;;;;;24.74;74.59;94318.91;4916740;29;20439;-83
2022/08/22 08:06:59;;;;;;;13.20;11.00;;;;;;;24.77;74.40;94318.44;4916179;29;20821;-84
2022/08/22 08:09:31;;;;;;;13.90;10.20;;;;;;;24.54;74.89;94313.84;4917445;29;20536;-82
2022/08/22 08:12:00;;;;;;;17.87;10.33;;;;;;;24.23;75.55;94315.72;4917032;29;20840;-83
2022/08/22 08:14:30;;;;;;;11.80;9.70;;;;;;;23.93;76.13;94313.03;4916413;29;20492;-83
2022/08/22 08:17:02;;;;;;;14.47;10.07;;;;;;;23.85;75.95;94315.22;4916279;29;20452;-83
2022/08/22 08:19:32;;;;;;;15.43;9.70;;;;;;;24.22;77.15;94305.22;4918004;29;20443;-83
2022/08/22 08:21:59;;;;;;;16.23;10.80;;;;;;;24.71;75.14;94312.16;4916959;29;20519;-83
2022/08/22 08:24:30;;;;;;;11.00;9.90;;;;;;;25.09;73.98;94292.94;4916491;29;20448;-83
2022/08/22 08:29:57;;;;;;;12.73;8.60;;;;;;;26.23;68.86;94306.59;4916492;29;20435;-83
2022/08/22 08:32:27;;;;;;;9.37;8.40;;;;;;;26.77;68.80;94313.25;4916427;29;20503;-84
2022/08/22 08:34:55;;;;;;;15.20;8.70;;;;;;;27.08;65.54;94308.38;4916311;29;20496;-83
2022/08/22 08:37:27;;;;;;;10.23;8.03;;;;;;;27.42;64.46;94311.81;4898413;29;20448;-83
2022/08/22 08:39:58;;;;;;;11.13;8.20;;;;;;;27.71;62.48;94315.22;4916410;29;20459;-83
2022/08/22 08:45:40;;;;;;;11.20;9.73;;;;;;;27.52;64.79;94309.28;4915880;29;20459;-83
2022/08/22 08:48:49;;;;;;;13.47;9.00;;;;;;;26.98;62.48;94313.56;4916183;29;20791;-83
2022/08/22 08:51:43;;;;;;;11.50;9.17;;;;;;;26.72;63.21;94301.56;4914223;29;20999;-83
2022/08/22 08:54:39;;;;;;;13.90;9.60;;;;;;;26.45;64.43;94298.69;4917353;29;20555;-82
2022/08/22 08:57:18;;;;;;;10.37;9.07;;;;;;;26.55;65.73;94305.06;4917123;29;20448;-83
2022/08/22 08:59:59;;;;;;;11.10;10.00;;;;;;;26.67;66.31;94302.31;4901489;29;20505;-84
2022/08/22 09:02:46;;;;;;;14.13;9.93;;;;;;;26.96;66.02;94299.53;4917603;29;20539;-83
2022/08/22 09:05:34;;;;;;;16.43;10.20;;;;;;;27.35;65.65;94292.31;4917433;29;20898;-83
2022/08/22 09:08:41;;;;;;;16.63;10.07;;;;;;;27.53;63.77;94296.63;4917394;29;20455;-83
2022/08/22 09:12:01;;;;;;;11.77;10.03;;;;;;;27.38;64.50;94295.34;4917105;29;20467;-83
2022/08/22 09:14:47;;;;;;;9.83;8.83;;;;;;;26.80;64.34;94301.16;4843896;29;20527;-82
2022/08/22 09:17:32;;;;;;;13.43;9.77;;;;;;;26.75;65.40;94287.63;4843293;29;20460;-83
2022/08/22 09:20:16;;;;;;;12.30;9.60;;;;;;;26.77;67.77;94286.31;4842716;29;20478;-83
2022/08/22 09:23:22;;;;;;;13.27;9.20;;;;;;;27.02;66.51;94299.41;4811679;29;20953;-83
2022/08/22 09:25:52;;;;;;;9.73;8.73;;;;;;;26.68;65.19;94292.38;4717283;30;20472;-82
2022/08/22 09:28:24;;;;;;;15.10;9.47;;;;;;;26.47;66.46;94281.25;4717937;30;20572;-82
2022/08/22 09:31:15;;;;;;;16.77;10.57;;;;;;;26.69;67.08;94281.34;4717319;30;20521;-84
2022/08/22 09:33:53;;;;;;;10.70;9.70;;;;;;;26.57;64.97;94279.78;4717813;30;20493;-83
2022/08/22 09:36:28;;;;;;;12.93;9.30;;;;;;;26.83;67.17;94284.53;4718308;30;20495;-82
2022/08/22 09:38:58;;;;;;;11.43;8.70;;;;;;;26.98;64.86;94282.06;4717596;30;20810;-83
2022/08/22 09:41:38;;;;;;;10.63;9.53;;;;;;;27.11;64.93;94281.75;4717799;30;20558;-83
2022/08/22 09:44:16;;;;;;;9.00;8.20;;;;;;;27.18;64.17;94284.28;4717159;30;20536;-83
2022/08/22 09:47:07;;;;;;;10.07;9.20;;;;;;;27.25;64.39;94281.41;4717060;30;20485;-84
2022/08/22 09:49:47;;;;;;;13.13;10.07;;;;;;;27.09;62.96;94273.09;4805642;29;20495;-83
2022/08/22 09:52:25;;;;;;;10.37;8.83;;;;;;;27.14;63.35;94259.69;4805959;29;20540;-83
2022/08/22 09:55:01;;;;;;;11.93;10.73;;;;;;;27.15;63.91;94260.53;4805272;29;20509;-83
2022/08/22 09:57:37;;;;;;;12.83;9.30;;;;;;;27.29;64.50;94258.31;4805473;29;20495;-83
2022/08/22 10:00:24;;;;;;;11.70;10.47;;;;;;;27.49;64.56;94258.56;4806529;29;20515;-84
2022/08/22 10:03:05;;;;;;;15.13;10.20;;;;;;;27.42;63.88;94252.53;4870832;29;20966;-83
2022/08/22 10:05:43;;;;;;;10.37;9.37;;;;;;;27.16;63.32;94256.75;4918986;29;20448;-83
2022/08/22 10:08:36;;;;;;;10.37;9.23;;;;;;;27.29;65.92;94242.94;4918738;29;20958;-83
2022/08/22 10:11:14;;;;;;;11.17;8.87;;;;;;;27.38;65.90;94243.31;4878661;29;20524;-83
2022/08/22 10:13:54;;;;;;;11.50;10.40;;;;;;;27.50;63.95;94238.66;4878298;29;20477;-82
2022/08/22 10:16:35;;;;;;;14.17;9.60;;;;;;;27.48;64.28;94234.56;4878381;29;20454;-83
2022/08/22 10:19:11;;;;;;;11.23;9.43;;;;;;;27.57;62.90;94225.78;4878703;29;20434;-82
2022/08/22 10:21:48;;;;;;;11.23;9.43;;;;;;;27.65;63.03;94216.47;4878395;29;20522;-82
2022/08/22 10:24:26;;;;;;;12.37;9.50;;;;;;;27.58;62.66;94216.63;4878300;29;20458;-83
2022/08/22 10:26:56;;;;;;;14.50;9.73;;;;;;;27.64;63.17;94221.03;4849257;29;20822;-83
2022/08/22 10:29:43;;;;;;;11.57;10.13;;;;;;;27.54;62.86;94212.81;4878146;29;20481;-83
2022/08/22 10:32:30;;;;;;;11.13;9.87;;;;;;;27.39;63.34;94213.44;4878473;29;20468;-84
2022/08/22 10:35:02;;;;;;;13.00;9.47;;;;;;;27.26;64.47;94205.72;4878063;29;20604;-83
2022/08/22 10:37:36;;;;;;;14.37;10.23;;;;;;;27.34;63.41;94199.09;4878211;29;20454;-84
2022/08/22 10:40:11;;;;;;;11.17;10.17;;;;;;;27.51;65.50;94194.44;4877918;29;20542;-83
2022/08/22 10:42:46;;;;;;;12.83;9.83;;;;;;;27.60;63.71;94192.94;4862173;29;20453;-83
2022/08/22 10:45:21;;;;;;;12.43;9.67;;;;;;;27.81;63.13;94193.19;4877805;29;20460;-83
2022/08/22 10:48:30;;;;;;;10.87;9.77;;;;;;;27.89;62.26;94198.94;4894725;29;20459;-81
2022/08/22 10:51:04;;;;;;;10.27;9.27;;;;;;;27.51;63.57;94199.84;4917717;29;20462;-83
2022/08/22 10:53:42;;;;;;;10.70;9.60;;;;;;;27.37;64.01;94209.34;4917495;29;20458;-82
2022/08/22 10:56:15;;;;;;;12.03;9.60;;;;;;;27.30;65.40;94200.66;4917672;29;20511;-84
2022/08/22 10:58:50;;;;;;;11.90;8.83;;;;;;;27.29;63.66;94201.72;4917402;29;20488;-84
2022/08/22 11:01:19;;;;;;;11.90;9.53;;;;;;;27.22;62.61;94204.59;4917339;29;20950;-83
2022/08/22 11:03:56;;;;;;;11.53;9.57;;;;;;;27.26;62.91;94202.22;4917455;29;20770;-82
2022/08/22 11:06:29;;;;;;;9.93;8.43;;;;;;;27.19;62.87;94196.22;4915210;29;20962;-84
2022/08/22 11:09:10;;;;;;;11.70;10.57;;;;;;;27.22;63.21;94203.78;4917251;29;20455;-83
2022/08/22 11:11:43;;;;;;;13.23;9.50;;;;;;;27.19;63.20;94197.03;4917544;29;20456;-83
2022/08/22 11:14:46;;;;;;;10.03;8.90;;;;;;;26.85;63.55;94190.84;4917211;29;20498;-82
2022/08/22 11:17:29;;;;;;;13.53;10.00;;;;;;;27.13;65.81;94196.13;4916923;29;20460;-82
2022/08/22 11:20:09;;;;;;;10.77;8.77;;;;;;;27.20;65.41;94189.75;4916968;29;20451;-82
2022/08/22 11:22:46;;;;;;;10.00;9.00;;;;;;;26.64;64.11;94191.63;4917067;29;20448;-83
2022/08/22 11:25:30;;;;;;;11.30;9.50;;;;;;;26.54;65.88;94190.41;4916977;29;20452;-83
2022/08/22 11:28:25;;;;;;;10.60;9.50;;;;;;;26.75;66.24;94186.16;4917012;29;20447;-83
2022/08/22 11:31:04;;;;;;;10.33;8.97;;;;;;;26.92;65.08;94190.69;4916801;29;20455;-83
2022/08/22 11:33:40;;;;;;;10.30;9.20;;;;;;;27.16;65.53;94192.91;4916723;29;20452;-84
2022/08/22 11:36:21;;;;;;;10.23;9.23;;;;;;;27.22;63.59;94174.16;4917130;29;20582;-83
2022/08/22 11:38:59;;;;;;;10.57;9.33;;;;;;;27.21;62.20;94184.13;4930503;29;20451;-82
2022/08/22 11:41:33;;;;;;;11.03;9.43;;;;;;;27.29;62.04;94175.59;4916611;29;20503;-83
2022/08/22 11:44:06;;;;;;;13.80;9.27;;;;;;;27.51;62.20;94183.66;4916799;29;20448;-84
2022/08/22 11:46:36;;;;;;;9.97;9.00;;;;;;;27.53;62.17;94180.72;4916758;29;20808;-83
2022/08/22 11:49:25;;;;;;;10.60;8.50;;;;;;;27.46;62.26;94179.00;4916523;29;20466;-83
2022/08/22 11:52:03;;;;;;;9.53;8.53;;;;;;;27.48;61.44;94184.19;4916496;29;20448;-83
2022/08/22 11:54:56;;;;;;;14.43;8.93;;;;;;;27.47;63.16;94177.16;4916149;29;20487;-82
2022/08/22 11:57:33;;;;;;;11.10;9.27;;;;;;;27.54;62.64;94169.69;4914686;29;20891;-84
2022/08/22 12:00:13;;;;;;;9.63;8.60;;;;;;;27.45;62.00;94182.78;4916426;29;20993;-83
2022/08/22 12:02:57;;;;;;;9.10;8.20;;;;;;;27.06;61.72;94187.41;4899635;29;20526;-83
2022/08/22 12:05:31;;;;;;;10.43;9.33;;;;;;;26.88;63.41;94174.19;4916125;29;20917;-84
2022/08/22 12:08:09;;;;;;;14.70;9.30;;;;;;;27.00;64.28;94171.44;4916228;29;20942;-83
2022/08/22 12:10:43;;;;;;;12.13;10.63;;;;;;;27.06;65.74;94160.47;4916147;29;20452;-83
2022/08/22 12:13:17;;;;;;;11.27;9.43;;;;;;;27.16;67.38;94159.78;4916291;29;20452;-83
2022/08/22 12:15:55;;;;;;;12.67;11.33;;;;;;;27.30;64.77;94163.75;4916336;29;20494;-83
2022/08/22 12:18:38;;;;;;;14.27;11.50;;;;;;;27.33;64.29;94170.50;4916544;29;20448;-83
2022/08/22 12:21:48;;;;;;;12.37;11.00;;;;;;;27.12;64.13;94162.16;4916136;29;20447;-83
2022/08/22 12:24:33;;;;;;;13.13;9.43;;;;;;;27.24;64.60;94145.91;4895068;29;20512;-84
2022/08/22 12:27:21;;;;;;;10.63;9.60;;;;;;;27.35;65.44;94136.03;4894450;29;20448;-83